Highworth, United Kingdom
Current Conditions -  °F | °C
As of 3:13 PM on Thursday 30 Oct 2014 (Local Time) from EGVA Reporting Station
Scattered Clouds Scattered Clouds  
Wind Chill: 18°   Ceiling: Unl
Heat Index: 18°   Visibility: 6mi
Dew Point: 15°   Wind: 8mph
Humidity: 83%   Direction: 180°S
Pressure: 30.02"   Gusts: NA
Location:  51.63°N, 1.71°W
Report Text: EGVA 301513Z AUTO 18007KT 9999 SCT016 18/15 A3002 RMK AO2
Loading
Personal Weather Stations






























Interactive Weather Map
Tropical Storm Tracking
New forecast layout! Learn more

10-Day Weather Forecast

Advertisements
Track Severe Weather on mobile